sensor_id;sensor_type;location;lat;lon;timestamp;P1;durP1;ratioP1;P2;durP2;ratioP2
15706;SDS011;7953;54.302;10.128;2023-04-03T00:00:03;2.70;;;1.80;;
15706;SDS011;7953;54.302;10.128;2023-04-03T00:02:33;3.30;;;1.60;;
15706;SDS011;7953;54.302;10.128;2023-04-03T00:05:00;4.80;;;1.77;;
15706;SDS011;7953;54.302;10.128;2023-04-03T00:07:27;2.80;;;1.97;;
15706;SDS011;7953;54.302;10.128;2023-04-03T00:09:54;5.13;;;1.73;;
15706;SDS011;7953;54.302;10.128;2023-04-03T00:12:20;4.23;;;2.33;;
15706;SDS011;7953;54.302;10.128;2023-04-03T00:14:47;5.33;;;2.30;;
15706;SDS011;7953;54.302;10.128;2023-04-03T00:17:14;6.23;;;2.40;;
15706;SDS011;7953;54.302;10.128;2023-04-03T00:19:42;3.67;;;2.23;;
15706;SDS011;7953;54.302;10.128;2023-04-03T00:22:09;6.63;;;2.20;;
15706;SDS011;7953;54.302;10.128;2023-04-03T00:24:36;8.13;;;1.87;;
15706;SDS011;7953;54.302;10.128;2023-04-03T00:27:03;2.07;;;1.60;;
15706;SDS011;7953;54.302;10.128;2023-04-03T00:29:30;2.73;;;1.50;;
15706;SDS011;7953;54.302;10.128;2023-04-03T00:31:57;6.73;;;2.50;;
15706;SDS011;7953;54.302;10.128;2023-04-03T00:34:24;4.30;;;2.10;;
15706;SDS011;7953;54.302;10.128;2023-04-03T00:36:52;5.13;;;1.97;;
15706;SDS011;7953;54.302;10.128;2023-04-03T00:39:19;7.70;;;2.07;;
15706;SDS011;7953;54.302;10.128;2023-04-03T00:41:46;4.90;;;2.20;;
15706;SDS011;7953;54.302;10.128;2023-04-03T00:44:23;5.43;;;2.03;;
15706;SDS011;7953;54.302;10.128;2023-04-03T00:47:25;2.80;;;1.90;;
15706;SDS011;7953;54.302;10.128;2023-04-03T00:49:54;2.90;;;2.00;;
15706;SDS011;7953;54.302;10.128;2023-04-03T00:52:23;3.10;;;1.90;;
15706;SDS011;7953;54.302;10.128;2023-04-03T00:54:53;5.30;;;2.73;;
15706;SDS011;7953;54.302;10.128;2023-04-03T00:57:23;4.47;;;2.27;;
15706;SDS011;7953;54.302;10.128;2023-04-03T00:59:52;6.17;;;2.07;;
15706;SDS011;7953;54.302;10.128;2023-04-03T01:02:23;2.77;;;2.07;;
15706;SDS011;7953;54.302;10.128;2023-04-03T01:04:51;5.00;;;2.20;;
15706;SDS011;7953;54.302;10.128;2023-04-03T01:07:18;2.13;;;1.67;;
15706;SDS011;7953;54.302;10.128;2023-04-03T01:09:49;3.40;;;2.10;;
15706;SDS011;7953;54.302;10.128;2023-04-03T01:12:22;4.00;;;1.90;;
15706;SDS011;7953;54.302;10.128;2023-04-03T01:14:51;2.10;;;1.63;;
15706;SDS011;7953;54.302;10.128;2023-04-03T01:17:30;3.63;;;2.00;;
15706;SDS011;7953;54.302;10.128;2023-04-03T01:20:17;5.07;;;2.03;;
15706;SDS011;7953;54.302;10.128;2023-04-03T01:23:12;4.07;;;1.63;;
15706;SDS011;7953;54.302;10.128;2023-04-03T01:25:59;2.70;;;1.83;;
15706;SDS011;7953;54.302;10.128;2023-04-03T01:28:27;3.13;;;1.60;;
15706;SDS011;7953;54.302;10.128;2023-04-03T01:30:58;7.43;;;1.87;;
15706;SDS011;7953;54.302;10.128;2023-04-03T01:33:29;5.87;;;2.00;;
15706;SDS011;7953;54.302;10.128;2023-04-03T01:35:56;2.80;;;2.00;;
15706;SDS011;7953;54.302;10.128;2023-04-03T01:38:23;2.20;;;1.97;;
15706;SDS011;7953;54.302;10.128;2023-04-03T01:40:50;5.17;;;2.00;;
15706;SDS011;7953;54.302;10.128;2023-04-03T01:43:17;3.20;;;1.83;;
15706;SDS011;7953;54.302;10.128;2023-04-03T01:45:44;3.20;;;1.73;;
15706;SDS011;7953;54.302;10.128;2023-04-03T01:48:11;3.47;;;1.83;;
15706;SDS011;7953;54.302;10.128;2023-04-03T01:50:40;3.27;;;1.87;;
15706;SDS011;7953;54.302;10.128;2023-04-03T01:53:07;4.17;;;2.10;;
15706;SDS011;7953;54.302;10.128;2023-04-03T01:55:34;2.80;;;1.60;;
15706;SDS011;7953;54.302;10.128;2023-04-03T01:58:01;2.80;;;1.83;;
15706;SDS011;7953;54.302;10.128;2023-04-03T02:00:28;3.73;;;2.03;;
15706;SDS011;7953;54.302;10.128;2023-04-03T02:02:55;2.40;;;1.77;;
15706;SDS011;7953;54.302;10.128;2023-04-03T02:05:22;4.90;;;2.20;;
15706;SDS011;7953;54.302;10.128;2023-04-03T02:07:51;5.87;;;2.10;;
15706;SDS011;7953;54.302;10.128;2023-04-03T02:10:17;5.43;;;2.07;;
15706;SDS011;7953;54.302;10.128;2023-04-03T02:12:44;6.33;;;1.90;;
15706;SDS011;7953;54.302;10.128;2023-04-03T02:15:11;2.80;;;1.80;;
15706;SDS011;7953;54.302;10.128;2023-04-03T02:17:38;3.77;;;1.93;;
15706;SDS011;7953;54.302;10.128;2023-04-03T02:20:06;5.73;;;2.30;;
15706;SDS011;7953;54.302;10.128;2023-04-03T02:22:33;4.13;;;2.20;;
15706;SDS011;7953;54.302;10.128;2023-04-03T02:25:02;6.20;;;2.00;;
15706;SDS011;7953;54.302;10.128;2023-04-03T02:27:29;7.13;;;2.47;;
15706;SDS011;7953;54.302;10.128;2023-04-03T02:29:56;5.33;;;2.53;;
15706;SDS011;7953;54.302;10.128;2023-04-03T02:32:23;6.07;;;2.73;;
15706;SDS011;7953;54.302;10.128;2023-04-03T02:34:50;5.60;;;2.33;;
15706;SDS011;7953;54.302;10.128;2023-04-03T02:37:17;5.50;;;2.60;;
15706;SDS011;7953;54.302;10.128;2023-04-03T02:39:44;5.30;;;2.73;;
15706;SDS011;7953;54.302;10.128;2023-04-03T02:42:12;7.03;;;3.10;;
15706;SDS011;7953;54.302;10.128;2023-04-03T02:44:39;11.10;;;4.17;;
15706;SDS011;7953;54.302;10.128;2023-04-03T02:47:06;8.93;;;4.10;;
15706;SDS011;7953;54.302;10.128;2023-04-03T02:49:33;7.10;;;3.80;;
15706;SDS011;7953;54.302;10.128;2023-04-03T02:52:00;6.87;;;3.40;;
15706;SDS011;7953;54.302;10.128;2023-04-03T02:54:26;6.10;;;3.37;;
15706;SDS011;7953;54.302;10.128;2023-04-03T02:56:55;4.97;;;2.80;;
15706;SDS011;7953;54.302;10.128;2023-04-03T02:59:24;8.03;;;3.07;;
15706;SDS011;7953;54.302;10.128;2023-04-03T03:01:51;7.87;;;3.20;;
15706;SDS011;7953;54.302;10.128;2023-04-03T03:04:18;5.23;;;3.10;;
15706;SDS011;7953;54.302;10.128;2023-04-03T03:06:45;4.67;;;2.80;;
15706;SDS011;7953;54.302;10.128;2023-04-03T03:09:12;5.90;;;2.90;;
15706;SDS011;7953;54.302;10.128;2023-04-03T03:11:39;3.13;;;2.60;;
15706;SDS011;7953;54.302;10.128;2023-04-03T03:14:06;4.00;;;2.60;;
15706;SDS011;7953;54.302;10.128;2023-04-03T03:16:34;6.60;;;2.73;;
15706;SDS011;7953;54.302;10.128;2023-04-03T03:19:01;3.13;;;2.50;;
15706;SDS011;7953;54.302;10.128;2023-04-03T03:21:28;4.13;;;3.17;;
15706;SDS011;7953;54.302;10.128;2023-04-03T03:23:55;4.87;;;2.50;;
15706;SDS011;7953;54.302;10.128;2023-04-03T03:26:22;3.80;;;2.60;;
15706;SDS011;7953;54.302;10.128;2023-04-03T03:28:50;4.80;;;2.30;;
15706;SDS011;7953;54.302;10.128;2023-04-03T03:31:16;5.83;;;2.77;;
15706;SDS011;7953;54.302;10.128;2023-04-03T03:33:45;7.20;;;2.40;;
15706;SDS011;7953;54.302;10.128;2023-04-03T03:36:12;6.43;;;2.63;;
15706;SDS011;7953;54.302;10.128;2023-04-03T03:38:38;5.73;;;2.77;;
15706;SDS011;7953;54.302;10.128;2023-04-03T03:41:05;8.60;;;2.80;;
15706;SDS011;7953;54.302;10.128;2023-04-03T03:43:32;5.20;;;2.90;;
15706;SDS011;7953;54.302;10.128;2023-04-03T03:45:59;4.13;;;2.70;;
15706;SDS011;7953;54.302;10.128;2023-04-03T03:48:26;6.10;;;2.70;;
15706;SDS011;7953;54.302;10.128;2023-04-03T03:50:54;5.40;;;2.87;;
15706;SDS011;7953;54.302;10.128;2023-04-03T03:53:21;3.50;;;2.53;;
15706;SDS011;7953;54.302;10.128;2023-04-03T03:55:48;5.00;;;3.50;;
15706;SDS011;7953;54.302;10.128;2023-04-03T03:58:15;5.27;;;3.33;;
15706;SDS011;7953;54.302;10.128;2023-04-03T04:00:42;5.10;;;3.13;;
15706;SDS011;7953;54.302;10.128;2023-04-03T04:03:09;6.17;;;3.20;;
15706;SDS011;7953;54.302;10.128;2023-04-03T04:05:36;7.17;;;3.47;;
15706;SDS011;7953;54.302;10.128;2023-04-03T04:08:05;6.40;;;3.10;;
15706;SDS011;7953;54.302;10.128;2023-04-03T04:10:32;5.77;;;2.87;;
15706;SDS011;7953;54.302;10.128;2023-04-03T04:12:59;5.40;;;3.53;;
15706;SDS011;7953;54.302;10.128;2023-04-03T04:15:26;8.97;;;3.23;;
15706;SDS011;7953;54.302;10.128;2023-04-03T04:17:53;6.23;;;3.83;;
15706;SDS011;7953;54.302;10.128;2023-04-03T04:20:20;5.23;;;3.50;;
15706;SDS011;7953;54.302;10.128;2023-04-03T04:22:47;5.83;;;3.30;;
15706;SDS011;7953;54.302;10.128;2023-04-03T04:25:15;6.30;;;3.63;;
15706;SDS011;7953;54.302;10.128;2023-04-03T04:27:42;8.03;;;3.30;;
15706;SDS011;7953;54.302;10.128;2023-04-03T04:30:09;5.17;;;2.97;;
15706;SDS011;7953;54.302;10.128;2023-04-03T04:32:37;7.57;;;3.20;;
15706;SDS011;7953;54.302;10.128;2023-04-03T04:35:04;5.70;;;3.60;;
15706;SDS011;7953;54.302;10.128;2023-04-03T04:37:32;5.73;;;3.17;;
15706;SDS011;7953;54.302;10.128;2023-04-03T04:39:58;5.57;;;3.90;;
15706;SDS011;7953;54.302;10.128;2023-04-03T04:42:27;8.47;;;3.43;;
15706;SDS011;7953;54.302;10.128;2023-04-03T04:44:54;4.73;;;3.57;;
15706;SDS011;7953;54.302;10.128;2023-04-03T04:47:20;4.73;;;3.30;;
15706;SDS011;7953;54.302;10.128;2023-04-03T04:49:47;6.83;;;3.80;;
15706;SDS011;7953;54.302;10.128;2023-04-03T04:52:14;4.23;;;3.43;;
15706;SDS011;7953;54.302;10.128;2023-04-03T04:54:41;8.50;;;3.20;;
15706;SDS011;7953;54.302;10.128;2023-04-03T04:57:08;5.93;;;3.50;;
15706;SDS011;7953;54.302;10.128;2023-04-03T04:59:37;4.57;;;2.80;;
15706;SDS011;7953;54.302;10.128;2023-04-03T05:02:04;7.90;;;3.90;;
15706;SDS011;7953;54.302;10.128;2023-04-03T05:04:31;4.33;;;3.23;;
15706;SDS011;7953;54.302;10.128;2023-04-03T05:06:58;8.93;;;3.40;;
15706;SDS011;7953;54.302;10.128;2023-04-03T05:09:25;5.13;;;3.77;;
15706;SDS011;7953;54.302;10.128;2023-04-03T05:11:52;6.03;;;4.67;;
15706;SDS011;7953;54.302;10.128;2023-04-03T05:14:19;5.07;;;3.80;;
15706;SDS011;7953;54.302;10.128;2023-04-03T05:16:47;5.13;;;3.53;;
15706;SDS011;7953;54.302;10.128;2023-04-03T05:19:17;5.43;;;4.10;;
15706;SDS011;7953;54.302;10.128;2023-04-03T05:21:44;7.80;;;4.73;;
15706;SDS011;7953;54.302;10.128;2023-04-03T05:24:11;5.67;;;4.50;;
15706;SDS011;7953;54.302;10.128;2023-04-03T05:26:38;5.83;;;3.80;;
15706;SDS011;7953;54.302;10.128;2023-04-03T05:29:05;10.03;;;6.00;;
15706;SDS011;7953;54.302;10.128;2023-04-03T05:31:32;6.93;;;4.63;;
15706;SDS011;7953;54.302;10.128;2023-04-03T05:34:01;9.57;;;4.83;;
15706;SDS011;7953;54.302;10.128;2023-04-03T05:36:28;8.43;;;5.10;;
15706;SDS011;7953;54.302;10.128;2023-04-03T05:38:54;6.70;;;4.67;;
15706;SDS011;7953;54.302;10.128;2023-04-03T05:41:22;6.10;;;4.37;;
15706;SDS011;7953;54.302;10.128;2023-04-03T05:43:49;11.10;;;4.63;;
15706;SDS011;7953;54.302;10.128;2023-04-03T05:46:17;7.43;;;4.30;;
15706;SDS011;7953;54.302;10.128;2023-04-03T05:48:45;7.07;;;4.77;;
15706;SDS011;7953;54.302;10.128;2023-04-03T05:51:15;9.20;;;5.20;;
15706;SDS011;7953;54.302;10.128;2023-04-03T05:53:44;5.87;;;4.90;;
15706;SDS011;7953;54.302;10.128;2023-04-03T05:56:17;8.07;;;4.87;;
15706;SDS011;7953;54.302;10.128;2023-04-03T05:58:46;7.17;;;5.10;;
15706;SDS011;7953;54.302;10.128;2023-04-03T06:01:13;7.53;;;4.57;;
15706;SDS011;7953;54.302;10.128;2023-04-03T06:03:41;8.47;;;5.30;;
15706;SDS011;7953;54.302;10.128;2023-04-03T06:06:07;6.10;;;5.20;;
15706;SDS011;7953;54.302;10.128;2023-04-03T06:08:39;7.73;;;5.80;;
15706;SDS011;7953;54.302;10.128;2023-04-03T06:11:06;7.03;;;5.87;;
15706;SDS011;7953;54.302;10.128;2023-04-03T06:13:33;9.03;;;6.87;;
15706;SDS011;7953;54.302;10.128;2023-04-03T06:16:01;9.07;;;5.90;;
15706;SDS011;7953;54.302;10.128;2023-04-03T06:18:29;12.47;;;6.17;;
15706;SDS011;7953;54.302;10.128;2023-04-03T06:20:56;9.40;;;6.33;;
15706;SDS011;7953;54.302;10.128;2023-04-03T06:23:25;7.67;;;6.40;;
15706;SDS011;7953;54.302;10.128;2023-04-03T06:25:54;7.70;;;5.27;;
15706;SDS011;7953;54.302;10.128;2023-04-03T06:28:20;5.57;;;4.60;;
15706;SDS011;7953;54.302;10.128;2023-04-03T06:30:47;6.57;;;5.50;;
15706;SDS011;7953;54.302;10.128;2023-04-03T06:33:14;9.57;;;4.60;;
15706;SDS011;7953;54.302;10.128;2023-04-03T06:35:41;7.13;;;5.03;;
15706;SDS011;7953;54.302;10.128;2023-04-03T06:38:08;9.10;;;5.53;;
15706;SDS011;7953;54.302;10.128;2023-04-03T06:40:36;7.80;;;5.20;;
15706;SDS011;7953;54.302;10.128;2023-04-03T06:43:04;7.53;;;4.57;;
15706;SDS011;7953;54.302;10.128;2023-04-03T06:45:32;8.93;;;5.07;;
15706;SDS011;7953;54.302;10.128;2023-04-03T06:47:59;7.50;;;4.83;;
15706;SDS011;7953;54.302;10.128;2023-04-03T06:50:26;7.50;;;5.17;;
15706;SDS011;7953;54.302;10.128;2023-04-03T06:52:53;7.37;;;4.70;;
15706;SDS011;7953;54.302;10.128;2023-04-03T06:55:20;4.17;;;3.33;;
15706;SDS011;7953;54.302;10.128;2023-04-03T06:57:47;6.87;;;3.23;;
15706;SDS011;7953;54.302;10.128;2023-04-03T07:00:15;5.23;;;2.83;;
15706;SDS011;7953;54.302;10.128;2023-04-03T07:02:43;3.33;;;2.20;;
15706;SDS011;7953;54.302;10.128;2023-04-03T07:05:10;8.40;;;2.40;;
15706;SDS011;7953;54.302;10.128;2023-04-03T07:07:37;4.00;;;1.90;;
15706;SDS011;7953;54.302;10.128;2023-04-03T07:10:04;7.53;;;3.10;;
15706;SDS011;7953;54.302;10.128;2023-04-03T07:12:32;5.87;;;1.97;;
15706;SDS011;7953;54.302;10.128;2023-04-03T07:15:00;2.10;;;1.63;;
15706;SDS011;7953;54.302;10.128;2023-04-03T07:17:29;10.23;;;1.77;;
15706;SDS011;7953;54.302;10.128;2023-04-03T07:19:56;4.73;;;2.53;;
15706;SDS011;7953;54.302;10.128;2023-04-03T07:22:23;4.57;;;2.07;;
15706;SDS011;7953;54.302;10.128;2023-04-03T07:24:50;5.57;;;2.10;;
15706;SDS011;7953;54.302;10.128;2023-04-03T07:27:17;9.40;;;2.53;;
15706;SDS011;7953;54.302;10.128;2023-04-03T07:29:44;4.63;;;2.23;;
15706;SDS011;7953;54.302;10.128;2023-04-03T07:32:13;6.60;;;2.67;;
15706;SDS011;7953;54.302;10.128;2023-04-03T07:34:41;3.87;;;2.17;;
15706;SDS011;7953;54.302;10.128;2023-04-03T07:37:08;5.43;;;2.23;;
15706;SDS011;7953;54.302;10.128;2023-04-03T07:39:35;4.17;;;1.80;;
15706;SDS011;7953;54.302;10.128;2023-04-03T07:42:02;4.90;;;1.77;;
15706;SDS011;7953;54.302;10.128;2023-04-03T07:44:29;7.30;;;2.87;;
15706;SDS011;7953;54.302;10.128;2023-04-03T07:46:56;6.27;;;2.30;;
15706;SDS011;7953;54.302;10.128;2023-04-03T07:49:23;4.73;;;1.33;;
15706;SDS011;7953;54.302;10.128;2023-04-03T07:51:52;5.27;;;2.73;;
15706;SDS011;7953;54.302;10.128;2023-04-03T07:54:19;5.67;;;2.30;;
15706;SDS011;7953;54.302;10.128;2023-04-03T07:56:46;6.83;;;1.80;;
15706;SDS011;7953;54.302;10.128;2023-04-03T07:59:13;3.23;;;1.67;;
15706;SDS011;7953;54.302;10.128;2023-04-03T08:01:40;6.13;;;2.50;;
15706;SDS011;7953;54.302;10.128;2023-04-03T08:04:07;2.17;;;1.40;;
15706;SDS011;7953;54.302;10.128;2023-04-03T08:06:34;5.17;;;2.10;;
15706;SDS011;7953;54.302;10.128;2023-04-03T08:09:04;9.63;;;4.30;;
15706;SDS011;7953;54.302;10.128;2023-04-03T08:11:31;5.10;;;1.43;;
15706;SDS011;7953;54.302;10.128;2023-04-03T08:13:57;6.50;;;3.40;;
15706;SDS011;7953;54.302;10.128;2023-04-03T08:16:25;2.87;;;1.33;;
15706;SDS011;7953;54.302;10.128;2023-04-03T08:18:53;4.87;;;0.97;;
15706;SDS011;7953;54.302;10.128;2023-04-03T08:21:20;4.30;;;1.83;;
15706;SDS011;7953;54.302;10.128;2023-04-03T08:23:47;2.33;;;0.90;;
15706;SDS011;7953;54.302;10.128;2023-04-03T08:26:18;2.40;;;0.90;;
15706;SDS011;7953;54.302;10.128;2023-04-03T08:28:47;1.17;;;0.90;;
15706;SDS011;7953;54.302;10.128;2023-04-03T08:31:14;1.83;;;0.83;;
15706;SDS011;7953;54.302;10.128;2023-04-03T08:33:43;1.97;;;0.80;;
15706;SDS011;7953;54.302;10.128;2023-04-03T08:36:16;2.67;;;0.80;;
15706;SDS011;7953;54.302;10.128;2023-04-03T08:38:45;2.50;;;0.93;;
15706;SDS011;7953;54.302;10.128;2023-04-03T08:41:14;1.17;;;0.73;;
15706;SDS011;7953;54.302;10.128;2023-04-03T08:43:48;3.13;;;1.10;;
15706;SDS011;7953;54.302;10.128;2023-04-03T08:46:24;2.03;;;1.10;;
15706;SDS011;7953;54.302;10.128;2023-04-03T08:49:01;2.50;;;1.00;;
15706;SDS011;7953;54.302;10.128;2023-04-03T08:51:28;2.73;;;0.90;;
15706;SDS011;7953;54.302;10.128;2023-04-03T08:53:56;3.37;;;1.33;;
15706;SDS011;7953;54.302;10.128;2023-04-03T08:56:28;1.53;;;0.90;;
15706;SDS011;7953;54.302;10.128;2023-04-03T08:58:58;3.40;;;1.10;;
15706;SDS011;7953;54.302;10.128;2023-04-03T09:01:27;2.07;;;1.07;;
15706;SDS011;7953;54.302;10.128;2023-04-03T09:04:00;2.87;;;0.90;;
15706;SDS011;7953;54.302;10.128;2023-04-03T09:06:28;3.50;;;1.37;;
15706;SDS011;7953;54.302;10.128;2023-04-03T09:09:02;4.70;;;1.10;;
15706;SDS011;7953;54.302;10.128;2023-04-03T09:11:41;2.93;;;0.90;;
15706;SDS011;7953;54.302;10.128;2023-04-03T09:14:15;3.70;;;1.10;;
15706;SDS011;7953;54.302;10.128;2023-04-03T09:16:49;1.90;;;0.80;;
15706;SDS011;7953;54.302;10.128;2023-04-03T09:19:22;4.43;;;1.67;;
15706;SDS011;7953;54.302;10.128;2023-04-03T09:21:57;1.67;;;1.20;;
15706;SDS011;7953;54.302;10.128;2023-04-03T09:24:25;2.60;;;1.50;;
15706;SDS011;7953;54.302;10.128;2023-04-03T09:26:53;2.20;;;1.03;;
15706;SDS011;7953;54.302;10.128;2023-04-03T09:29:26;5.60;;;1.40;;
15706;SDS011;7953;54.302;10.128;2023-04-03T09:31:55;2.23;;;1.00;;
15706;SDS011;7953;54.302;10.128;2023-04-03T09:34:24;2.80;;;1.23;;
15706;SDS011;7953;54.302;10.128;2023-04-03T09:36:53;5.57;;;1.30;;
15706;SDS011;7953;54.302;10.128;2023-04-03T09:39:21;3.93;;;1.20;;
15706;SDS011;7953;54.302;10.128;2023-04-03T09:41:58;3.33;;;1.10;;
15706;SDS011;7953;54.302;10.128;2023-04-03T09:44:28;1.07;;;0.90;;
15706;SDS011;7953;54.302;10.128;2023-04-03T09:46:57;2.50;;;1.17;;
15706;SDS011;7953;54.302;10.128;2023-04-03T09:49:25;2.67;;;0.80;;
15706;SDS011;7953;54.302;10.128;2023-04-03T09:51:52;1.83;;;1.00;;
15706;SDS011;7953;54.302;10.128;2023-04-03T09:57:08;5.37;;;1.33;;
15706;SDS011;7953;54.302;10.128;2023-04-03T09:59:44;3.20;;;1.27;;
15706;SDS011;7953;54.302;10.128;2023-04-03T10:02:21;2.97;;;2.00;;
15706;SDS011;7953;54.302;10.128;2023-04-03T10:04:56;2.47;;;1.23;;
15706;SDS011;7953;54.302;10.128;2023-04-03T10:07:28;1.87;;;0.97;;
15706;SDS011;7953;54.302;10.128;2023-04-03T10:09:57;2.77;;;1.20;;
15706;SDS011;7953;54.302;10.128;2023-04-03T10:12:26;1.43;;;0.80;;
15706;SDS011;7953;54.302;10.128;2023-04-03T10:14:55;2.93;;;1.07;;
15706;SDS011;7953;54.302;10.128;2023-04-03T10:17:26;2.67;;;0.90;;
15706;SDS011;7953;54.302;10.128;2023-04-03T10:20:04;2.57;;;0.90;;
15706;SDS011;7953;54.302;10.128;2023-04-03T10:22:43;2.10;;;0.80;;
15706;SDS011;7953;54.302;10.128;2023-04-03T10:25:20;1.63;;;0.80;;
15706;SDS011;7953;54.302;10.128;2023-04-03T10:27:55;1.23;;;0.80;;
15706;SDS011;7953;54.302;10.128;2023-04-03T10:30:32;1.90;;;0.87;;
15706;SDS011;7953;54.302;10.128;2023-04-03T10:36:03;3.63;;;1.07;;
15706;SDS011;7953;54.302;10.128;2023-04-03T10:38:40;3.03;;;1.13;;
15706;SDS011;7953;54.302;10.128;2023-04-03T10:41:16;3.77;;;1.20;;
15706;SDS011;7953;54.302;10.128;2023-04-03T10:43:50;2.50;;;0.80;;
15706;SDS011;7953;54.302;10.128;2023-04-03T10:46:28;2.43;;;1.33;;
15706;SDS011;7953;54.302;10.128;2023-04-03T10:49:05;1.80;;;0.90;;
15706;SDS011;7953;54.302;10.128;2023-04-03T10:51:45;3.20;;;1.10;;
15706;SDS011;7953;54.302;10.128;2023-04-03T10:54:15;3.07;;;1.30;;
15706;SDS011;7953;54.302;10.128;2023-04-03T10:56:47;2.97;;;1.00;;
15706;SDS011;7953;54.302;10.128;2023-04-03T10:59:18;3.13;;;0.97;;
15706;SDS011;7953;54.302;10.128;2023-04-03T11:01:53;4.10;;;1.10;;
15706;SDS011;7953;54.302;10.128;2023-04-03T11:04:23;4.03;;;1.13;;
15706;SDS011;7953;54.302;10.128;2023-04-03T11:06:55;3.73;;;1.07;;
15706;SDS011;7953;54.302;10.128;2023-04-03T11:09:26;4.00;;;1.10;;
15706;SDS011;7953;54.302;10.128;2023-04-03T11:11:55;3.87;;;1.27;;
15706;SDS011;7953;54.302;10.128;2023-04-03T11:14:28;4.47;;;1.43;;
15706;SDS011;7953;54.302;10.128;2023-04-03T11:17:01;3.33;;;1.10;;
15706;SDS011;7953;54.302;10.128;2023-04-03T11:19:41;2.30;;;1.00;;
15706;SDS011;7953;54.302;10.128;2023-04-03T11:22:15;0.90;;;0.80;;
15706;SDS011;7953;54.302;10.128;2023-04-03T11:24:51;1.93;;;0.80;;
15706;SDS011;7953;54.302;10.128;2023-04-03T11:27:24;2.87;;;0.90;;
15706;SDS011;7953;54.302;10.128;2023-04-03T11:29:55;2.70;;;0.93;;
15706;SDS011;7953;54.302;10.128;2023-04-03T11:32:32;5.87;;;1.13;;
15706;SDS011;7953;54.302;10.128;2023-04-03T11:35:15;3.07;;;1.07;;
15706;SDS011;7953;54.302;10.128;2023-04-03T11:37:44;1.70;;;0.60;;
15706;SDS011;7953;54.302;10.128;2023-04-03T11:40:19;1.23;;;0.60;;
15706;SDS011;7953;54.302;10.128;2023-04-03T11:42:51;1.40;;;0.97;;
15706;SDS011;7953;54.302;10.128;2023-04-03T11:45:25;2.83;;;0.80;;
15706;SDS011;7953;54.302;10.128;2023-04-03T11:48:02;1.30;;;0.73;;
15706;SDS011;7953;54.302;10.128;2023-04-03T11:50:30;1.70;;;0.90;;
15706;SDS011;7953;54.302;10.128;2023-04-03T11:56:29;1.80;;;0.73;;
15706;SDS011;7953;54.302;10.128;2023-04-03T11:59:16;2.70;;;1.10;;
15706;SDS011;7953;54.302;10.128;2023-04-03T12:01:50;2.17;;;0.70;;
15706;SDS011;7953;54.302;10.128;2023-04-03T12:04:19;1.10;;;0.80;;
15706;SDS011;7953;54.302;10.128;2023-04-03T12:06:52;2.10;;;0.60;;
15706;SDS011;7953;54.302;10.128;2023-04-03T12:09:26;1.97;;;1.10;;
15706;SDS011;7953;54.302;10.128;2023-04-03T12:11:56;3.10;;;0.90;;
15706;SDS011;7953;54.302;10.128;2023-04-03T12:14:26;2.23;;;0.80;;
15706;SDS011;7953;54.302;10.128;2023-04-03T12:16:55;1.63;;;0.90;;
15706;SDS011;7953;54.302;10.128;2023-04-03T12:22:12;2.63;;;1.00;;
15706;SDS011;7953;54.302;10.128;2023-04-03T12:24:42;2.40;;;1.20;;
15706;SDS011;7953;54.302;10.128;2023-04-03T12:30:05;2.00;;;0.80;;
15706;SDS011;7953;54.302;10.128;2023-04-03T12:32:58;2.57;;;1.00;;
15706;SDS011;7953;54.302;10.128;2023-04-03T12:35:42;1.70;;;0.80;;
15706;SDS011;7953;54.302;10.128;2023-04-03T12:38:25;1.20;;;0.70;;
15706;SDS011;7953;54.302;10.128;2023-04-03T12:41:14;1.77;;;0.80;;
15706;SDS011;7953;54.302;10.128;2023-04-03T12:44:02;2.37;;;1.03;;
15706;SDS011;7953;54.302;10.128;2023-04-03T12:46:51;1.43;;;0.80;;
15706;SDS011;7953;54.302;10.128;2023-04-03T12:49:26;1.93;;;0.93;;
15706;SDS011;7953;54.302;10.128;2023-04-03T12:52:03;2.93;;;1.03;;
15706;SDS011;7953;54.302;10.128;2023-04-03T12:54:32;1.90;;;0.93;;
15706;SDS011;7953;54.302;10.128;2023-04-03T12:57:11;4.13;;;0.97;;
15706;SDS011;7953;54.302;10.128;2023-04-03T12:59:39;1.63;;;0.90;;
15706;SDS011;7953;54.302;10.128;2023-04-03T13:02:10;2.73;;;1.00;;
15706;SDS011;7953;54.302;10.128;2023-04-03T13:04:48;1.93;;;1.00;;
15706;SDS011;7953;54.302;10.128;2023-04-03T13:07:21;1.20;;;0.83;;
15706;SDS011;7953;54.302;10.128;2023-04-03T13:09:57;1.63;;;1.10;;
15706;SDS011;7953;54.302;10.128;2023-04-03T13:12:27;1.57;;;0.90;;
15706;SDS011;7953;54.302;10.128;2023-04-03T13:14:55;3.37;;;0.80;;
15706;SDS011;7953;54.302;10.128;2023-04-03T13:17:23;2.27;;;1.00;;
15706;SDS011;7953;54.302;10.128;2023-04-03T13:19:51;1.77;;;1.00;;
15706;SDS011;7953;54.302;10.128;2023-04-03T13:22:23;2.30;;;0.87;;
15706;SDS011;7953;54.302;10.128;2023-04-03T13:24:57;3.20;;;1.20;;
15706;SDS011;7953;54.302;10.128;2023-04-03T13:27:26;1.50;;;1.00;;
15706;SDS011;7953;54.302;10.128;2023-04-03T13:29:57;2.13;;;1.03;;
15706;SDS011;7953;54.302;10.128;2023-04-03T13:32:26;4.03;;;1.23;;
15706;SDS011;7953;54.302;10.128;2023-04-03T13:34:55;2.53;;;1.10;;
15706;SDS011;7953;54.302;10.128;2023-04-03T13:37:25;2.57;;;1.00;;
15706;SDS011;7953;54.302;10.128;2023-04-03T13:39:59;2.27;;;1.10;;
15706;SDS011;7953;54.302;10.128;2023-04-03T13:42:29;2.87;;;1.23;;
15706;SDS011;7953;54.302;10.128;2023-04-03T13:47:55;3.63;;;1.20;;
15706;SDS011;7953;54.302;10.128;2023-04-03T13:50:49;1.77;;;1.30;;
15706;SDS011;7953;54.302;10.128;2023-04-03T13:53:23;2.40;;;1.30;;
15706;SDS011;7953;54.302;10.128;2023-04-03T13:55:53;2.67;;;1.60;;
15706;SDS011;7953;54.302;10.128;2023-04-03T13:58:23;4.20;;;1.53;;
15706;SDS011;7953;54.302;10.128;2023-04-03T14:00:51;3.30;;;1.10;;
15706;SDS011;7953;54.302;10.128;2023-04-03T14:03:21;2.97;;;1.00;;
15706;SDS011;7953;54.302;10.128;2023-04-03T14:05:51;2.27;;;1.30;;
15706;SDS011;7953;54.302;10.128;2023-04-03T14:08:19;3.73;;;1.30;;
15706;SDS011;7953;54.302;10.128;2023-04-03T14:10:48;2.50;;;1.23;;
15706;SDS011;7953;54.302;10.128;2023-04-03T14:13:16;0.90;;;0.87;;
15706;SDS011;7953;54.302;10.128;2023-04-03T14:15:45;2.33;;;1.20;;
15706;SDS011;7953;54.302;10.128;2023-04-03T14:18:14;4.03;;;1.53;;
15706;SDS011;7953;54.302;10.128;2023-04-03T14:20:42;3.57;;;1.20;;
15706;SDS011;7953;54.302;10.128;2023-04-03T14:23:09;4.27;;;1.30;;
15706;SDS011;7953;54.302;10.128;2023-04-03T14:25:36;2.40;;;1.00;;
15706;SDS011;7953;54.302;10.128;2023-04-03T14:28:12;2.73;;;1.33;;
15706;SDS011;7953;54.302;10.128;2023-04-03T14:30:42;2.30;;;1.20;;
15706;SDS011;7953;54.302;10.128;2023-04-03T14:33:10;2.20;;;0.93;;
15706;SDS011;7953;54.302;10.128;2023-04-03T14:35:40;5.87;;;1.40;;
15706;SDS011;7953;54.302;10.128;2023-04-03T14:38:12;3.83;;;1.57;;
15706;SDS011;7953;54.302;10.128;2023-04-03T14:40:50;3.17;;;1.07;;
15706;SDS011;7953;54.302;10.128;2023-04-03T14:43:19;4.40;;;1.60;;
15706;SDS011;7953;54.302;10.128;2023-04-03T14:45:47;3.23;;;1.40;;
15706;SDS011;7953;54.302;10.128;2023-04-03T14:48:16;4.17;;;1.37;;
15706;SDS011;7953;54.302;10.128;2023-04-03T14:50:45;2.50;;;1.20;;
15706;SDS011;7953;54.302;10.128;2023-04-03T14:53:13;2.50;;;1.20;;
15706;SDS011;7953;54.302;10.128;2023-04-03T14:55:41;4.27;;;1.20;;
15706;SDS011;7953;54.302;10.128;2023-04-03T14:58:12;2.00;;;1.07;;
15706;SDS011;7953;54.302;10.128;2023-04-03T15:00:42;3.60;;;1.63;;
15706;SDS011;7953;54.302;10.128;2023-04-03T15:03:12;2.27;;;1.47;;
15706;SDS011;7953;54.302;10.128;2023-04-03T15:05:41;3.00;;;1.40;;
15706;SDS011;7953;54.302;10.128;2023-04-03T15:08:13;4.60;;;1.60;;
15706;SDS011;7953;54.302;10.128;2023-04-03T15:10:45;3.67;;;1.57;;
15706;SDS011;7953;54.302;10.128;2023-04-03T15:13:12;4.00;;;1.30;;
15706;SDS011;7953;54.302;10.128;2023-04-03T15:15:39;2.20;;;1.20;;
15706;SDS011;7953;54.302;10.128;2023-04-03T15:18:10;2.40;;;1.10;;
15706;SDS011;7953;54.302;10.128;2023-04-03T15:20:42;2.67;;;0.97;;